KSPF/SPF METAR and TAF weather

Enter ICAO airport designator
Station Type Date Time Source
KSPF METAR 2019/02/20 07:15 UTC NOAA

KSPF 200715Z AUTO 27004KT 10SM OVC031 M12/M14 A2965 RMK AO2 PWINO


Station Type Date Time Source
KSPF Decoded METAR 2019/02/20 07:15 UTC NOAA

Spearfish / Clyde Ice, SD, United States (KSPF) 44-29N 103-47W
Feb 20, 2019 - 02:15 AM EST / 2019.02.20 0715 UTC
Wind: from the W (270 degrees) at 5 MPH (4 KT):0
Visibility: 10 mile(s):0
Sky conditions: overcast
Temperature: 10 F (-12 C)
Windchill: 1 F (-17 C):1
Dew Point: 6 F (-14 C)
Relative Humidity: 85%
Pressure (altimeter): 29.65 in. Hg (1004 hPa)
ob: KSPF 200715Z AUTO 27004KT 10SM OVC031 M12/M14 A2965 RMK AO2 PWINO
cycle: 7

Station Type Date Time Source
KSPF TAF UTC NOAA

Error!


Example: see airport list